Time;durP1;ratioP1;P1;durP2;ratioP2;P2;SDS_P1;SDS_P2;PMS_P1;PMS_P2;Temp;Humidity;BMP_temperature;BMP_pressure;BME280_temperature;BME280_humidity;BME280_pressure;Samples;Min_cycle;Max_cycle;Signal;HPM_P1;HPM_P2
2021/07/17 00:02:21;;;;;;;28.23;9.10;;;19.60;99.90;;;;;;5034100;28;20463;-85
2021/07/17 00:04:48;;;;;;;21.90;10.17;;;19.60;99.90;;;;;;5033779;28;20821;-85
2021/07/17 00:07:16;;;;;;;26.43;11.53;;;19.60;99.90;;;;;;5029491;28;20466;-85
2021/07/17 00:09:42;;;;;;;26.47;10.90;;;19.50;99.90;;;;;;5029638;28;20521;-83
2021/07/17 00:12:11;;;;;;;24.53;8.83;;;19.50;99.90;;;;;;5029690;28;20445;-83
2021/07/17 00:14:38;;;;;;;25.60;9.40;;;19.50;99.90;;;;;;5031094;28;20568;-84
2021/07/17 00:17:05;;;;;;;24.43;9.33;;;19.50;99.90;;;;;;5029534;28;20648;-85
2021/07/17 00:19:31;;;;;;;27.20;11.13;;;19.50;99.90;;;;;;5035057;28;20452;-85
2021/07/17 00:21:58;;;;;;;26.23;9.93;;;19.50;99.90;;;;;;5032830;28;20473;-85
2021/07/17 00:24:25;;;;;;;28.10;10.87;;;19.30;99.90;;;;;;5031136;28;20456;-85
2021/07/17 00:26:52;;;;;;;22.90;9.53;;;19.40;99.90;;;;;;5031546;28;20542;-85
2021/07/17 00:29:20;;;;;;;25.07;10.27;;;19.40;99.90;;;;;;5029755;28;20464;-85
2021/07/17 00:31:47;;;;;;;25.40;9.37;;;19.40;99.90;;;;;;5024621;28;20490;-85
2021/07/17 00:34:13;;;;;;;27.00;9.90;;;19.40;99.90;;;;;;5011056;28;20480;-84
2021/07/17 00:36:40;;;;;;;23.77;10.23;;;19.40;99.90;;;;;;5010880;28;20554;-85
2021/07/17 00:39:07;;;;;;;27.20;10.03;;;19.40;99.90;;;;;;5009839;28;20478;-85
2021/07/17 00:41:34;;;;;;;24.70;10.47;;;19.50;99.90;;;;;;5013119;28;20485;-84
2021/07/17 00:44:01;;;;;;;27.13;10.53;;;19.40;99.90;;;;;;5030558;28;20454;-84
2021/07/17 00:46:30;;;;;;;27.60;11.30;;;19.40;99.90;;;;;;5028716;28;20470;-85
2021/07/17 00:48:57;;;;;;;26.97;12.10;;;19.40;99.90;;;;;;5029017;28;20445;-84
2021/07/17 00:51:26;;;;;;;25.93;10.17;;;19.30;99.90;;;;;;5027497;28;20457;-85
2021/07/17 00:53:52;;;;;;;28.93;11.60;;;19.30;99.90;;;;;;5009654;28;20454;-84
2021/07/17 00:56:20;;;;;;;26.93;11.27;;;19.30;99.90;;;;;;5009807;28;20486;-85
2021/07/17 00:58:49;;;;;;;24.77;10.33;;;19.40;99.90;;;;;;5009315;28;20465;-85
2021/07/17 01:01:16;;;;;;;28.80;10.60;;;19.40;99.90;;;;;;5011289;28;20455;-85
2021/07/17 01:03:45;;;;;;;29.50;11.57;;;19.40;99.90;;;;;;5029135;28;20458;-85
2021/07/17 01:06:11;;;;;;;26.93;10.60;;;19.20;99.90;;;;;;5029972;28;20472;-85
2021/07/17 01:08:38;;;;;;;57.33;11.90;;;19.30;99.90;;;;;;5029021;28;20460;-85
2021/07/17 01:11:05;;;;;;;21.00;9.97;;;19.40;99.90;;;;;;5030596;28;20505;-85
2021/07/17 01:13:32;;;;;;;25.90;11.23;;;19.40;99.90;;;;;;5011900;28;20462;-84
2021/07/17 01:16:00;;;;;;;24.07;9.10;;;19.40;99.90;;;;;;5010105;28;20563;-85
2021/07/17 01:18:27;;;;;;;26.40;9.70;;;19.40;99.90;;;;;;5009144;28;20451;-84
2021/07/17 01:20:58;;;;;;;22.70;10.13;;;19.40;99.90;;;;;;5010846;28;20478;-85
2021/07/17 01:23:26;;;;;;;29.37;10.43;;;19.40;99.90;;;;;;5010607;28;20462;-84
2021/07/17 01:25:53;;;;;;;26.50;9.70;;;19.40;99.90;;;;;;5010700;28;20487;-85
2021/07/17 01:28:20;;;;;;;27.03;10.30;;;19.40;99.90;;;;;;5010071;28;20523;-84
2021/07/17 01:30:47;;;;;;;24.83;10.27;;;19.30;99.90;;;;;;5010574;28;20505;-83
2021/07/17 01:33:13;;;;;;;24.70;10.90;;;19.30;99.90;;;;;;5025894;28;20517;-84
2021/07/17 01:35:40;;;;;;;28.53;10.13;;;19.20;99.90;;;;;;5030939;28;20516;-84
2021/07/17 01:38:07;;;;;;;26.03;10.70;;;19.20;99.90;;;;;;5030670;28;20521;-84
2021/07/17 01:40:35;;;;;;;26.17;10.97;;;19.10;99.90;;;;;;5028898;28;20450;-84
2021/07/17 01:43:03;;;;;;;24.83;10.00;;;19.20;99.90;;;;;;5016366;28;20461;-84
2021/07/17 01:45:32;;;;;;;33.83;10.90;;;19.10;99.90;;;;;;5008775;28;20478;-84
2021/07/17 01:48:00;;;;;;;22.40;9.53;;;19.10;99.90;;;;;;5009993;28;20538;-85
2021/07/17 01:50:28;;;;;;;26.00;9.20;;;19.10;99.90;;;;;;5009669;28;20478;-85
2021/07/17 01:52:56;;;;;;;25.70;9.27;;;19.20;99.90;;;;;;5027471;28;20450;-84
2021/07/17 01:55:23;;;;;;;25.23;8.93;;;19.00;99.90;;;;;;5033850;28;20540;-84
2021/07/17 01:57:51;;;;;;;30.33;9.80;;;19.00;99.90;;;;;;5033924;28;20483;-84
2021/07/17 02:00:20;;;;;;;26.73;10.43;;;19.10;99.90;;;;;;5033556;28;20497;-85
2021/07/17 02:02:49;;;;;;;27.30;10.57;;;19.00;99.90;;;;;;5020992;28;20455;-84
2021/07/17 02:05:17;;;;;;;25.87;9.03;;;19.00;99.90;;;;;;5013762;28;20526;-85
2021/07/17 02:07:45;;;;;;;25.30;9.63;;;19.10;99.90;;;;;;5013510;28;20918;-84
2021/07/17 02:10:13;;;;;;;25.37;9.00;;;19.10;99.90;;;;;;5013446;28;20549;-85
2021/07/17 02:12:55;;;;;;;24.40;9.73;;;19.10;99.90;;;;;;5025611;28;20560;-84
2021/07/17 02:15:24;;;;;;;20.67;8.60;;;19.10;99.90;;;;;;5033119;28;20499;-85
2021/07/17 02:17:51;;;;;;;22.37;10.10;;;19.00;99.90;;;;;;5034074;28;20449;-85
2021/07/17 02:20:18;;;;;;;19.20;9.07;;;19.00;99.90;;;;;;5032790;28;20849;-85
2021/07/17 02:22:45;;;;;;;26.57;9.00;;;19.00;99.90;;;;;;5032870;28;20454;-85
2021/07/17 02:25:12;;;;;;;26.10;9.27;;;19.00;99.90;;;;;;5032143;28;20505;-85
2021/07/17 02:27:39;;;;;;;25.00;9.47;;;19.00;99.90;;;;;;5034248;28;20450;-84
2021/07/17 02:30:06;;;;;;;22.10;9.20;;;19.00;99.90;;;;;;5030582;28;20460;-84
2021/07/17 02:32:34;;;;;;;24.30;9.37;;;19.00;99.90;;;;;;5021190;28;21028;-84
2021/07/17 02:35:02;;;;;;;26.57;9.60;;;19.00;99.90;;;;;;5013673;28;20490;-84
2021/07/17 02:37:29;;;;;;;27.13;9.67;;;19.00;99.90;;;;;;5013833;28;20987;-85
2021/07/17 02:39:55;;;;;;;24.53;9.20;;;19.00;99.90;;;;;;5012695;28;20460;-86
2021/07/17 02:42:23;;;;;;;24.10;9.67;;;19.00;99.90;;;;;;5020242;28;20522;-85
2021/07/17 02:44:50;;;;;;;24.43;9.77;;;19.00;99.90;;;;;;5030604;28;20454;-85
2021/07/17 02:47:17;;;;;;;29.97;10.70;;;19.00;99.90;;;;;;5028690;28;20473;-85
2021/07/17 02:49:45;;;;;;;23.70;9.63;;;19.00;99.90;;;;;;5028633;28;20445;-85
2021/07/17 02:52:12;;;;;;;24.60;10.13;;;19.00;99.90;;;;;;5029230;28;20517;-84
2021/07/17 02:54:39;;;;;;;29.43;9.93;;;18.90;99.90;;;;;;5032735;28;20485;-84
2021/07/17 02:57:06;;;;;;;26.33;10.27;;;18.90;99.90;;;;;;5033309;28;20537;-84
2021/07/17 02:59:33;;;;;;;23.30;9.63;;;19.00;99.90;;;;;;5032524;28;20453;-84
2021/07/17 03:01:59;;;;;;;26.00;10.00;;;19.00;99.90;;;;;;5017448;28;20477;-85
2021/07/17 03:04:26;;;;;;;28.07;10.37;;;19.00;99.90;;;;;;5050936;28;20456;-85
2021/07/17 03:06:55;;;;;;;21.87;9.30;;;19.00;99.90;;;;;;5052756;28;20505;-85
2021/07/17 03:09:22;;;;;;;21.90;10.07;;;19.00;99.90;;;;;;5049439;28;20548;-84
2021/07/17 03:11:49;;;;;;;24.27;9.50;;;18.90;99.90;;;;;;5042839;28;20450;-85
2021/07/17 03:14:16;;;;;;;26.50;10.93;;;19.00;99.90;;;;;;5016847;28;20537;-84
2021/07/17 03:16:43;;;;;;;26.93;10.77;;;18.90;99.90;;;;;;5016816;28;20562;-85
2021/07/17 03:19:10;;;;;;;28.13;10.23;;;18.80;99.90;;;;;;5016185;28;20453;-85
2021/07/17 03:21:37;;;;;;;25.50;9.07;;;18.80;99.90;;;;;;5017732;28;20450;-85
2021/07/17 03:24:05;;;;;;;24.83;10.83;;;18.80;99.90;;;;;;5017341;28;20518;-85
2021/07/17 03:26:32;;;;;;;28.80;9.33;;;18.90;99.90;;;;;;5016362;28;20539;-85
2021/07/17 03:28:59;;;;;;;25.03;9.77;;;18.90;99.90;;;;;;5016086;28;20514;-85
2021/07/17 03:31:27;;;;;;;27.70;8.63;;;18.80;99.90;;;;;;5016365;28;20474;-85
2021/07/17 03:33:54;;;;;;;23.13;8.87;;;18.90;99.90;;;;;;5034392;28;20450;-85
2021/07/17 03:36:21;;;;;;;26.80;10.27;;;18.90;99.90;;;;;;5036286;28;20553;-85
2021/07/17 03:38:48;;;;;;;21.97;9.50;;;18.90;99.90;;;;;;5043872;28;21036;-85
2021/07/17 03:41:16;;;;;;;24.50;10.33;;;18.90;99.90;;;;;;5036471;28;20510;-85
2021/07/17 03:43:43;;;;;;;26.53;9.90;;;18.90;99.90;;;;;;5017537;28;20537;-86
2021/07/17 03:46:10;;;;;;;23.33;9.13;;;18.90;99.90;;;;;;5016219;28;20532;-85
2021/07/17 03:48:37;;;;;;;26.07;9.50;;;18.90;99.90;;;;;;5015612;28;20479;-85
2021/07/17 03:51:04;;;;;;;23.20;9.00;;;18.90;99.90;;;;;;5016059;28;20450;-85
2021/07/17 03:53:31;;;;;;;26.27;9.53;;;18.90;99.90;;;;;;5032290;28;20513;-85
2021/07/17 03:55:58;;;;;;;23.27;8.60;;;18.80;99.90;;;;;;5035645;28;20629;-85
2021/07/17 03:58:27;;;;;;;18.80;8.63;;;18.80;99.90;;;;;;5035258;28;20453;-84
2021/07/17 04:00:53;;;;;;;20.60;9.77;;;18.90;99.90;;;;;;5035200;28;20477;-84
2021/07/17 04:03:22;;;;;;;23.57;10.10;;;18.80;99.90;;;;;;5022335;28;20474;-84
2021/07/17 04:05:49;;;;;;;19.93;7.53;;;18.80;99.90;;;;;;5017105;28;20493;-84
2021/07/17 04:08:18;;;;;;;24.40;9.63;;;18.80;99.90;;;;;;5016216;28;20450;-85
2021/07/17 04:10:45;;;;;;;24.17;9.67;;;18.80;99.90;;;;;;5016104;28;21152;-84
2021/07/17 04:13:12;;;;;;;22.20;9.97;;;18.80;99.90;;;;;;5030591;28;20516;-85
2021/07/17 04:15:40;;;;;;;26.17;10.40;;;18.90;99.90;;;;;;5040708;28;20485;-85
2021/07/17 04:18:08;;;;;;;24.27;9.13;;;18.90;99.90;;;;;;5035202;28;20481;-85
2021/07/17 04:20:35;;;;;;;25.23;10.07;;;18.90;99.90;;;;;;5034777;28;20541;-85
2021/07/17 04:23:02;;;;;;;24.40;10.20;;;18.90;99.90;;;;;;5034746;28;20458;-85
2021/07/17 04:25:29;;;;;;;24.40;11.00;;;18.90;99.90;;;;;;5034715;28;20548;-85
2021/07/17 04:27:56;;;;;;;28.47;12.10;;;18.90;99.90;;;;;;5035496;28;20488;-85
2021/07/17 04:30:23;;;;;;;25.13;11.67;;;18.90;99.90;;;;;;5033840;28;20530;-84
2021/07/17 04:32:51;;;;;;;27.90;12.60;;;18.80;99.90;;;;;;5026178;28;20451;-84
2021/07/17 04:35:18;;;;;;;29.67;11.33;;;18.80;99.90;;;;;;4996312;28;20543;-84
2021/07/17 04:37:45;;;;;;;26.03;11.37;;;18.80;99.90;;;;;;5012759;28;20446;-85
2021/07/17 04:40:13;;;;;;;31.47;11.63;;;18.90;99.90;;;;;;5012002;28;20450;-85
2021/07/17 04:42:40;;;;;;;23.60;10.53;;;18.90;99.90;;;;;;5018902;28;20449;-85
2021/07/17 04:45:07;;;;;;;26.70;11.47;;;19.00;99.90;;;;;;5031129;28;20492;-85
2021/07/17 04:47:34;;;;;;;26.17;11.50;;;19.00;99.90;;;;;;5031703;28;20465;-84
2021/07/17 04:50:03;;;;;;;34.13;12.30;;;18.90;99.90;;;;;;5030342;28;20445;-85
2021/07/17 04:52:30;;;;;;;24.53;11.40;;;18.90;99.90;;;;;;5024913;28;20454;-85
2021/07/17 04:54:57;;;;;;;25.10;11.20;;;19.00;99.90;;;;;;5011131;28;20522;-85
2021/07/17 04:57:24;;;;;;;28.80;10.10;;;19.00;99.90;;;;;;5011743;28;20470;-85
2021/07/17 04:59:51;;;;;;;28.20;11.40;;;19.00;99.90;;;;;;5010495;28;20509;-85
2021/07/17 05:02:17;;;;;;;33.20;12.07;;;19.00;99.90;;;;;;5015766;28;20446;-86
2021/07/17 05:04:44;;;;;;;25.93;11.07;;;19.00;99.90;;;;;;5031155;28;20445;-85
2021/07/17 05:07:12;;;;;;;26.40;10.83;;;19.00;99.90;;;;;;5030487;28;20471;-85
2021/07/17 05:09:39;;;;;;;23.67;11.20;;;19.00;99.90;;;;;;5030141;28;20470;-85
2021/07/17 05:12:06;;;;;;;24.37;10.60;;;19.00;99.90;;;;;;5028082;28;20470;-84
2021/07/17 05:14:33;;;;;;;28.63;10.80;;;18.90;99.90;;;;;;5010912;28;20452;-84
2021/07/17 05:17:00;;;;;;;29.17;10.40;;;18.90;99.90;;;;;;5008674;28;20554;-85
2021/07/17 05:19:27;;;;;;;26.73;11.10;;;18.90;99.90;;;;;;5028019;28;20517;-84
2021/07/17 05:21:54;;;;;;;27.30;11.27;;;19.00;99.90;;;;;;5030189;28;20449;-84
2021/07/17 05:24:22;;;;;;;23.77;10.97;;;19.00;99.90;;;;;;5021968;28;20453;-83
2021/07/17 05:26:49;;;;;;;22.50;10.90;;;18.90;99.90;;;;;;5035161;28;20503;-84
2021/07/17 05:29:15;;;;;;;23.50;11.60;;;18.70;99.90;;;;;;5024830;28;20460;-86
2021/07/17 05:31:42;;;;;;;25.20;10.60;;;18.80;99.90;;;;;;5030233;28;20549;-85
2021/07/17 05:34:09;;;;;;;26.80;10.97;;;18.90;99.90;;;;;;5005582;28;20456;-85
2021/07/17 05:36:36;;;;;;;26.27;10.07;;;18.90;99.90;;;;;;5006521;28;20592;-85
2021/07/17 05:39:03;;;;;;;22.53;9.90;;;18.90;99.90;;;;;;5003054;28;20461;-85
2021/07/17 05:41:31;;;;;;;26.63;10.17;;;18.90;99.90;;;;;;5001674;28;20900;-85
2021/07/17 05:43:58;;;;;;;24.43;10.20;;;19.00;99.90;;;;;;5027545;28;20465;-85
2021/07/17 05:46:25;;;;;;;25.53;10.93;;;18.90;99.90;;;;;;5033944;28;20471;-85
2021/07/17 05:48:51;;;;;;;24.40;8.80;;;18.90;99.90;;;;;;5005402;28;20451;-85
2021/07/17 05:51:18;;;;;;;24.50;9.87;;;18.80;99.90;;;;;;5007526;28;20996;-86
2021/07/17 05:53:46;;;;;;;24.53;10.10;;;18.90;99.90;;;;;;5004377;28;20525;-84
2021/07/17 05:56:12;;;;;;;28.63;10.70;;;19.00;99.90;;;;;;4999640;28;20868;-86
2021/07/17 05:58:41;;;;;;;30.33;10.00;;;19.10;99.90;;;;;;4996140;28;20541;-85
2021/07/17 06:01:07;;;;;;;23.60;9.43;;;19.20;99.90;;;;;;4996431;28;20848;-84
2021/07/17 06:03:34;;;;;;;24.13;8.70;;;19.20;99.90;;;;;;5009340;28;20457;-85
2021/07/17 06:06:01;;;;;;;30.13;9.80;;;19.20;99.90;;;;;;5016526;28;20520;-85
2021/07/17 06:08:28;;;;;;;31.60;9.97;;;19.20;99.90;;;;;;5015470;28;20457;-84
2021/07/17 06:10:55;;;;;;;24.53;10.27;;;19.30;99.90;;;;;;5016400;28;20454;-84
2021/07/17 06:13:21;;;;;;;27.17;10.07;;;19.10;99.90;;;;;;5004282;28;20458;-84
2021/07/17 06:15:50;;;;;;;28.93;9.73;;;19.00;99.90;;;;;;5008027;28;20496;-85
2021/07/17 06:18:16;;;;;;;25.00;8.83;;;18.90;99.90;;;;;;5015518;28;20449;-87
2021/07/17 06:20:43;;;;;;;25.80;9.70;;;18.80;99.90;;;;;;5016363;28;20457;-84
2021/07/17 06:23:10;;;;;;;24.23;8.90;;;18.90;99.90;;;;;;5013992;28;20890;-86
2021/07/17 06:25:38;;;;;;;30.03;10.50;;;19.00;99.90;;;;;;5015605;28;21182;-85
2021/07/17 06:28:05;;;;;;;22.97;8.90;;;19.00;99.90;;;;;;5013319;28;20446;-85
2021/07/17 06:30:32;;;;;;;21.07;9.37;;;19.00;99.90;;;;;;5013974;28;20537;-85
2021/07/17 06:33:00;;;;;;;23.27;9.63;;;19.10;99.90;;;;;;5015462;28;20456;-85
2021/07/17 06:35:28;;;;;;;26.30;8.57;;;19.10;99.90;;;;;;5013531;28;20473;-84
2021/07/17 06:37:54;;;;;;;26.13;9.57;;;18.90;99.90;;;;;;5017179;28;21803;-85
2021/07/17 06:40:21;;;;;;;23.33;9.70;;;19.00;99.90;;;;;;5011436;28;20457;-85
2021/07/17 06:42:50;;;;;;;22.67;9.63;;;19.20;99.90;;;;;;5010308;28;20964;-84
2021/07/17 06:45:19;;;;;;;26.87;10.00;;;19.10;99.90;;;;;;5016403;28;20445;-85
2021/07/17 06:47:47;;;;;;;25.03;9.30;;;19.20;99.90;;;;;;5028836;28;20450;-85
2021/07/17 06:50:22;;;;;;;25.17;11.10;;;19.30;99.90;;;;;;5030118;28;20445;-88
2021/07/17 06:52:51;;;;;;;20.90;9.10;;;19.30;99.90;;;;;;5018144;28;20456;-85
2021/07/17 06:55:18;;;;;;;32.13;11.73;;;19.30;99.90;;;;;;5013524;28;20446;-86
2021/07/17 06:57:45;;;;;;;22.63;9.30;;;19.30;99.90;;;;;;5015013;28;20576;-85
2021/07/17 07:00:14;;;;;;;25.90;9.90;;;19.30;99.90;;;;;;5007369;28;20457;-85
2021/07/17 07:02:41;;;;;;;24.43;9.50;;;19.10;99.90;;;;;;5011484;28;20447;-85
2021/07/17 07:05:10;;;;;;;28.00;10.13;;;19.20;99.90;;;;;;5009650;28;20466;-85
2021/07/17 07:07:39;;;;;;;27.30;9.93;;;19.30;99.90;;;;;;5005522;28;20446;-85
2021/07/17 07:10:08;;;;;;;26.13;8.87;;;19.30;99.90;;;;;;5009425;28;20549;-84
2021/07/17 07:12:37;;;;;;;20.03;7.70;;;19.30;99.90;;;;;;5012989;28;20458;-85
2021/07/17 07:15:06;;;;;;;27.77;11.00;;;19.40;99.90;;;;;;5004785;28;20450;-85
2021/07/17 07:17:33;;;;;;;27.00;9.40;;;19.50;99.90;;;;;;5011535;28;20478;-85
2021/07/17 07:19:59;;;;;;;21.07;8.20;;;19.40;99.90;;;;;;5022391;28;20459;-85
2021/07/17 07:22:26;;;;;;;27.00;9.60;;;19.50;99.90;;;;;;5024968;28;20450;-85
2021/07/17 07:24:54;;;;;;;23.50;9.30;;;19.60;99.90;;;;;;5025760;28;20464;-85
2021/07/17 07:27:21;;;;;;;23.50;9.50;;;19.40;99.90;;;;;;5028242;28;20481;-85
2021/07/17 07:29:48;;;;;;;25.87;7.90;;;19.50;99.90;;;;;;5025069;28;20456;-85
2021/07/17 07:32:15;;;;;;;25.80;10.17;;;19.40;99.90;;;;;;5027113;28;20455;-85
2021/07/17 07:34:42;;;;;;;30.47;9.47;;;19.50;99.90;;;;;;5030561;28;20945;-85
2021/07/17 07:37:09;;;;;;;24.70;10.47;;;19.70;99.90;;;;;;5016087;28;20491;-84
2021/07/17 07:39:36;;;;;;;20.67;8.60;;;19.70;99.90;;;;;;5015021;28;20454;-85
2021/07/17 07:42:05;;;;;;;25.37;9.40;;;19.70;99.90;;;;;;5015003;28;20931;-86
2021/07/17 07:44:32;;;;;;;20.67;9.10;;;19.70;99.90;;;;;;5010725;28;20466;-85
2021/07/17 07:46:58;;;;;;;25.43;8.30;;;19.60;99.90;;;;;;4994994;28;20481;-86
2021/07/17 07:49:25;;;;;;;22.93;8.87;;;19.60;99.90;;;;;;4993349;28;20630;-85
2021/07/17 07:51:52;;;;;;;22.33;8.17;;;19.70;99.90;;;;;;4995110;28;20472;-85
2021/07/17 07:54:21;;;;;;;24.40;8.27;;;19.90;99.90;;;;;;5011406;28;20957;-85
2021/07/17 07:56:48;;;;;;;22.73;8.63;;;20.00;99.90;;;;;;5014079;28;20497;-85
2021/07/17 07:59:16;;;;;;;29.30;8.73;;;20.00;99.90;;;;;;5013520;28;20910;-85
2021/07/17 08:01:43;;;;;;;25.73;9.40;;;20.00;99.90;;;;;;5013586;28;20544;-85
2021/07/17 08:04:10;;;;;;;23.03;9.03;;;19.80;99.90;;;;;;4998400;28;20458;-85
2021/07/17 08:06:37;;;;;;;28.93;8.90;;;19.90;99.90;;;;;;4993907;28;20483;-85
2021/07/17 08:09:05;;;;;;;28.73;8.13;;;20.10;99.90;;;;;;4997906;28;20446;-85
2021/07/17 08:11:31;;;;;;;25.03;8.30;;;20.00;99.90;;;;;;5015609;28;20476;-85
2021/07/17 08:13:58;;;;;;;23.80;8.53;;;20.20;99.90;;;;;;5014411;28;20457;-85
2021/07/17 08:16:26;;;;;;;25.70;8.90;;;20.20;99.90;;;;;;5017689;28;20568;-84
2021/07/17 08:18:53;;;;;;;23.60;8.10;;;20.20;99.90;;;;;;5017028;28;20480;-85
2021/07/17 08:21:20;;;;;;;24.73;8.50;;;20.30;99.90;;;;;;5018367;28;20537;-85
2021/07/17 08:23:47;;;;;;;24.80;7.27;;;20.30;99.90;;;;;;5007013;28;20450;-85
2021/07/17 08:26:14;;;;;;;25.90;8.47;;;20.30;99.90;;;;;;4998413;28;20479;-85
2021/07/17 08:28:41;;;;;;;17.77;7.50;;;20.50;99.90;;;;;;4998626;28;20481;-86
2021/07/17 08:31:08;;;;;;;19.20;6.73;;;20.50;99.90;;;;;;4996795;28;20839;-85
2021/07/17 08:33:36;;;;;;;16.97;7.47;;;20.60;99.90;;;;;;5008207;28;20465;-85
2021/07/17 08:36:03;;;;;;;19.47;6.97;;;20.70;99.90;;;;;;5026746;28;20477;-84
2021/07/17 08:38:30;;;;;;;21.47;7.03;;;20.80;99.90;;;;;;5023187;28;20489;-85
2021/07/17 08:40:58;;;;;;;19.13;7.40;;;21.00;99.90;;;;;;5016091;28;20944;-86
2021/07/17 08:43:26;;;;;;;20.50;6.00;;;21.20;99.90;;;;;;5015920;28;20972;-85
2021/07/17 08:45:53;;;;;;;23.67;6.90;;;21.30;99.90;;;;;;5016398;28;20476;-85
2021/07/17 08:48:21;;;;;;;28.77;7.73;;;21.40;99.90;;;;;;5014492;28;20450;-85
2021/07/17 08:50:50;;;;;;;23.30;7.00;;;21.40;99.90;;;;;;5017736;28;20454;-85
2021/07/17 08:53:18;;;;;;;27.40;7.77;;;21.60;99.90;;;;;;5017238;28;20452;-85
2021/07/17 08:55:45;;;;;;;22.53;6.47;;;21.70;99.90;;;;;;5016160;28;20531;-85
2021/07/17 08:58:12;;;;;;;20.53;6.70;;;21.70;99.90;;;;;;5016728;28;20680;-86
2021/07/17 09:00:41;;;;;;;19.20;5.63;;;21.70;99.90;;;;;;5013984;28;20540;-85
2021/07/17 09:03:10;;;;;;;20.47;6.83;;;21.80;99.90;;;;;;5016248;28;20450;-85
2021/07/17 09:05:42;;;;;;;18.63;6.20;;;21.80;99.90;;;;;;4995009;28;20474;-85
2021/07/17 09:08:11;;;;;;;26.30;6.90;;;21.90;99.90;;;;;;4996273;28;20450;-86
2021/07/17 09:10:39;;;;;;;18.13;6.50;;;22.00;99.90;;;;;;4995054;28;20471;-85
2021/07/17 09:13:08;;;;;;;21.63;6.37;;;22.20;99.90;;;;;;5000380;28;20458;-85
2021/07/17 09:15:35;;;;;;;23.17;6.67;;;22.60;99.90;;;;;;5018523;28;20919;-86
2021/07/17 09:18:03;;;;;;;19.63;5.60;;;22.90;99.90;;;;;;5018333;28;20477;-85
2021/07/17 09:20:29;;;;;;;22.87;6.20;;;23.20;99.90;;;;;;5018980;28;20445;-87
2021/07/17 09:22:58;;;;;;;22.13;6.53;;;23.50;99.90;;;;;;5016241;28;20450;-86
2021/07/17 09:25:36;;;;;;;20.37;6.40;;;23.70;99.90;;;;;;5030698;28;20453;-86
2021/07/17 09:28:17;;;;;;;22.27;5.50;;;24.00;99.90;;;;;;5028414;28;20542;-86
2021/07/17 09:30:45;;;;;;;25.27;5.43;;;24.30;99.90;;;;;;5029377;28;20453;-86
2021/07/17 09:33:12;;;;;;;20.33;5.07;;;24.60;99.90;;;;;;5027268;28;20465;-87
2021/07/17 09:35:41;;;;;;;20.10;5.27;;;24.90;99.90;;;;;;5013362;28;20541;-86
2021/07/17 09:38:09;;;;;;;22.23;6.30;;;25.10;99.90;;;;;;5015492;28;20485;-86
2021/07/17 09:40:45;;;;;;;20.50;5.20;;;25.20;99.90;;;;;;5013423;28;20842;-86
2021/07/17 09:43:16;;;;;;;16.67;5.40;;;25.30;99.90;;;;;;5008665;28;20564;-85
2021/07/17 09:45:44;;;;;;;21.77;5.00;;;25.30;99.90;;;;;;5024410;28;20542;-87
2021/07/17 09:48:26;;;;;;;18.37;5.00;;;25.50;99.90;;;;;;5034097;28;20459;-86
2021/07/17 09:50:54;;;;;;;21.40;4.73;;;25.70;99.90;;;;;;5033659;28;20923;-87
2021/07/17 09:53:53;;;;;;;19.97;5.10;;;25.70;99.90;;;;;;5024145;28;20465;-87
2021/07/17 09:56:31;;;;;;;15.53;4.20;;;25.90;99.90;;;;;;4933522;29;20485;-87
2021/07/17 09:59:04;;;;;;;22.87;5.40;;;26.20;99.90;;;;;;5000281;28;20458;-87
2021/07/17 10:01:36;;;;;;;24.70;5.10;;;26.30;99.90;;;;;;5012692;28;20466;-86
2021/07/17 10:04:09;;;;;;;22.23;4.63;;;26.60;99.90;;;;;;5017567;28;20461;-86
2021/07/17 10:06:40;;;;;;;22.10;4.87;;;26.50;99.90;;;;;;5022401;28;20505;-86
2021/07/17 10:09:08;;;;;;;20.70;3.97;;;26.50;99.90;;;;;;5019162;28;20461;-85
2021/07/17 10:11:36;;;;;;;23.80;4.43;;;26.40;99.90;;;;;;5033023;28;20520;-85
2021/07/17 10:14:17;;;;;;;20.90;3.77;;;26.40;99.90;;;;;;5019666;28;20455;-86
2021/07/17 10:16:47;;;;;;;26.33;4.50;;;26.60;99.90;;;;;;5003580;28;20466;-86
2021/07/17 10:19:16;;;;;;;25.13;3.87;;;26.80;99.90;;;;;;5001587;28;20513;-86
2021/07/17 10:21:43;;;;;;;18.50;3.60;;;26.70;99.90;;;;;;4997722;28;20518;-87
2021/07/17 10:24:12;;;;;;;22.43;4.70;;;26.90;99.90;;;;;;5009521;28;20457;-87
2021/07/17 10:26:41;;;;;;;18.67;3.67;;;27.20;99.90;;;;;;5012931;28;20458;-86
2021/07/17 10:29:09;;;;;;;33.33;5.30;;;27.50;99.90;;;;;;5047659;28;20468;-86
2021/07/17 10:31:37;;;;;;;24.93;4.17;;;27.50;99.90;;;;;;5049643;28;20464;-86
2021/07/17 10:34:05;;;;;;;31.37;5.67;;;27.60;99.90;;;;;;5045531;28;20434;-87
2021/07/17 10:36:34;;;;;;;24.47;3.73;;;27.60;99.90;;;;;;5042362;28;20520;-86
2021/07/17 10:39:06;;;;;;;21.57;3.10;;;27.70;99.90;;;;;;5050481;28;20532;-86
2021/07/17 10:41:35;;;;;;;22.10;3.30;;;27.90;99.90;;;;;;5059113;28;20515;-87
2021/07/17 10:44:04;;;;;;;27.17;3.60;;;28.00;99.90;;;;;;5044438;28;20442;-87
2021/07/17 10:46:34;;;;;;;22.33;3.43;;;28.00;99.90;;;;;;5038699;28;20473;-86
2021/07/17 10:49:04;;;;;;;22.00;3.20;;;28.10;99.90;;;;;;5034496;28;20464;-87
2021/07/17 10:51:34;;;;;;;29.17;4.50;;;28.30;99.90;;;;;;5020178;28;20481;-88
2021/07/17 10:54:03;;;;;;;21.27;2.70;;;28.30;99.90;;;;;;5006221;28;20457;-87
2021/07/17 10:56:45;;;;;;;25.47;3.87;;;28.40;99.90;;;;;;5014329;28;21002;-87
2021/07/17 10:59:48;;;;;;;28.50;2.87;;;28.50;99.90;;;;;;4995947;28;20498;-86
2021/07/17 11:02:26;;;;;;;32.17;5.03;;;28.60;99.90;;;;;;4998853;28;20532;-87
2021/07/17 11:05:04;;;;;;;34.17;3.13;;;28.70;99.90;;;;;;4997422;28;20457;-87
2021/07/17 11:07:35;;;;;;;29.30;2.90;;;28.90;99.90;;;;;;4995375;28;20467;-87
2021/07/17 11:10:06;;;;;;;30.30;2.67;;;28.90;99.90;;;;;;4996035;28;21090;-87
2021/07/17 11:12:35;;;;;;;37.70;3.13;;;28.90;99.90;;;;;;4995417;28;20450;-86
2021/07/17 11:15:37;;;;;;;43.87;3.10;;;29.00;99.90;;;;;;5013814;28;20449;-87
2021/07/17 11:18:28;;;;;;;37.37;3.10;;;29.10;99.90;;;;;;5014942;28;20491;-88
2021/07/17 11:21:01;;;;;;;59.30;17.10;;;29.30;99.90;;;;;;5016397;28;20452;-88
2021/07/17 11:23:40;;;;;;;48.93;6.70;;;29.30;99.90;;;;;;5011675;28;20484;-88
2021/07/17 11:26:10;;;;;;;85.73;62.67;;;29.30;99.90;;;;;;4996981;28;20492;-86
2021/07/17 11:28:57;;;;;;;63.60;29.87;;;29.30;99.90;;;;;;4996637;28;20505;-85
2021/07/17 11:31:54;;;;;;;56.67;10.90;;;29.60;99.90;;;;;;5008272;28;20454;-83
2021/07/17 11:34:42;;;;;;;114.27;103.40;;;29.80;99.90;;;;;;5035535;28;20449;-85
2021/07/17 11:37:13;;;;;;;47.60;5.40;;;29.80;99.90;;;;;;5038188;28;20529;-84
2021/07/17 11:39:42;;;;;;;90.97;78.47;;;29.70;99.90;;;;;;5037592;28;20473;-84
2021/07/17 11:42:11;;;;;;;61.30;26.70;;;29.80;99.90;;;;;;5038708;28;20450;-85
2021/07/17 11:44:40;;;;;;;63.70;27.03;;;29.70;99.90;;;;;;5024536;28;20477;-84
2021/07/17 11:47:11;;;;;;;266.03;249.37;;;30.00;99.90;;;;;;5018305;28;20461;-85
2021/07/17 11:49:40;;;;;;;67.23;31.37;;;29.70;99.90;;;;;;5040725;28;20470;-85
2021/07/17 11:52:08;;;;;;;49.83;13.27;;;30.00;99.90;;;;;;5055248;28;20512;-85
2021/07/17 11:54:37;;;;;;;138.03;126.07;;;30.20;99.90;;;;;;5030276;28;20498;-85
2021/07/17 11:57:06;;;;;;;406.47;384.30;;;30.30;99.90;;;;;;5017395;28;20447;-84
2021/07/17 11:59:34;;;;;;;87.37;75.93;;;30.20;99.90;;;;;;5018232;28;20442;-84
2021/07/17 12:02:08;;;;;;;405.03;383.00;;;30.30;99.90;;;;;;5018487;28;20467;-84
2021/07/17 12:04:38;;;;;;;287.33;269.43;;;30.30;99.90;;;;;;5014744;28;20997;-85
2021/07/17 12:07:11;;;;;;;259.40;243.37;;;30.30;99.90;;;;;;5029213;28;20470;-83
2021/07/17 12:09:41;;;;;;;342.30;322.53;;;30.40;99.90;;;;;;5038036;28;20438;-84
2021/07/17 12:12:16;;;;;;;230.43;215.60;;;30.50;99.90;;;;;;5034031;28;20481;-87
2021/07/17 12:14:43;;;;;;;390.87;369.47;;;30.80;99.90;;;;;;4999446;28;20466;-85
2021/07/17 12:17:10;;;;;;;368.20;347.30;;;30.80;99.90;;;;;;4994786;28;20840;-85
2021/07/17 12:19:39;;;;;;;392.73;370.40;;;31.00;99.90;;;;;;5011139;28;20492;-86
2021/07/17 12:22:06;;;;;;;293.27;276.23;;;30.90;99.90;;;;;;5012018;28;20464;-86
2021/07/17 12:24:33;;;;;;;242.47;227.17;;;31.20;99.90;;;;;;5011645;28;20478;-89
2021/07/17 12:27:05;;;;;;;244.17;228.50;;;31.30;99.90;;;;;;5011453;28;20861;-88
2021/07/17 12:29:35;;;;;;;402.87;380.47;;;31.60;99.90;;;;;;4991913;28;20446;-84
2021/07/17 12:32:04;;;;;;;296.37;279.17;;;31.70;99.90;;;;;;4992981;28;20535;-85
2021/07/17 12:34:31;;;;;;;392.57;370.53;;;31.70;99.90;;;;;;4992318;28;20461;-85
2021/07/17 12:36:59;;;;;;;403.87;381.97;;;31.60;99.90;;;;;;4992278;28;20476;-86
2021/07/17 12:39:26;;;;;;;362.00;339.97;;;31.60;99.90;;;;;;4992133;28;20494;-87